メインページ
METAR-TAF:

METAR-TAF

空港 :

コルカタ, インド

ネータージー・スバース・チャンドラ・ボース国際空港

緯度: 22-39N, 経度: 088-27E, 海抜: 4m

現時点の気象観測

当レポートは29分前の20:00(UTC)に作成
南西の風 8kt
気温 26°C
湿度 100%
気圧 997 hPa
視程: 2600m
高度1500ftの雲は散在している
高度9000ftの千切れ雲あり
小雨

METAR: VECC 232000Z 23008KT 2600 -RA SCT015 BKN090 26/26 Q0997 NOSIG

時間: 01:59 (20:29 UTC)

予報

当レポートは3時間29分前の17:00(UTC)に作成
予報は23日の 18時(UTC)から 24日の 24時(UTC)まで有効
西/南西の風 12kt
視程: 2800m
高度1800ftの雲は散在している
高度9000ftの千切れ雲あり
煙霧
23日の 21時(UTC)から 24日の 01時(UTC)まで一時的に
視程: 1500m
高度1500ftの雲は散在している
高度2500ftの雲はほとんどない, 積乱雲.
高度9000ftの千切れ雲あり
激しい雷雨, 雨
24日の 04時(UTC)から 24日の 06時(UTC)まで徐々に
の風 7kt
視程: 3000m
小雨, 煙霧
24日の 06時(UTC)から 24日の 10時(UTC)まで一時的に
視程: 1500m
高度1500ftの雲は散在している
高度2500ftの雲はほとんどない, 積乱雲.
高度9000ftの千切れ雲あり
激しい雷雨, 雨
24日の 10時(UTC)から 24日の 12時(UTC)まで徐々に
視程: 2200m
小雨, 煙霧
24日の 13時(UTC)から 24日の 17時(UTC)まで一時的に
視程: 1500m
高度1500ftの雲は散在している
高度2500ftの雲はほとんどない, 積乱雲.
高度9000ftの千切れ雲あり
激しい雷雨, 雨

TAF: VECC 231700Z 2318/2424 24012KT 2800 HZ SCT018 BKN090 TEMPO 2321/2401 1500 TSRA SCT015 FEW025CB BKN090 BECMG 2404/2406 18007KT 3000 -RA HZ TEMPO 2406/2410 1500 TSRA SCT015 FEW025CB BKN090 BECMG 2410/2412 2200 -RA HZ TEMPO 2413/2417 1500 TSRA SCT015 FEW025CB BKN090

4,000以上の空港の気象観測と天気予報(METAR報とTAF報)

利用可能な観測所は地図上に黄色い丸と赤い丸で示す。

丸の上にカーソルを重ねると観測所名を参照できる。

次にクリックすると気象観測と天気予報を参照できる。

マップの切り替え:黒色「×」印の緑ボタンをクリックして拡大、「-」印の緑ボタンをクリックして縮小、緑色の三角印をクリックして隣りの地図に切り替え


METAR-TAF: